Time;durP1;ratioP1;P1;durP2;ratioP2;P2;SDS_P1;SDS_P2;PMS_P1;PMS_P2;Temp;Humidity;BMP_temperature;BMP_pressure;BME280_temperature;BME280_humidity;BME280_pressure;Samples;Min_cycle;Max_cycle;Signal;HPM_P1;HPM_P2
2022/11/09 00:00:32;;;;;;;5.18;2.08;;;;;;;13.99;89.61;68322.59;4980623;28;20544;-77
2022/11/09 00:02:57;;;;;;;4.85;2.30;;;;;;;14.01;89.37;68330.19;4981041;28;20108;-77
2022/11/09 00:05:22;;;;;;;6.60;2.33;;;;;;;;;;4985118;28;20084;-77
2022/11/09 00:07:47;;;;;;;5.07;2.20;;;;;;;13.99;89.30;68320.47;4982773;28;20137;-76
2022/11/09 00:10:13;;;;;;;3.67;1.85;;;;;;;13.98;89.45;68321.44;4983377;28;20328;-77
2022/11/09 00:12:38;;;;;;;8.27;2.00;;;;;;;13.97;89.44;68320.31;4981831;28;20042;-77
2022/11/09 00:15:04;;;;;;;4.75;2.00;;;;;;;;;;4984133;28;20121;-77
2022/11/09 00:17:29;;;;;;;4.75;1.95;;;;;;;13.93;89.90;68321.69;4980385;28;20343;-77
2022/11/09 00:19:54;;;;;;;4.55;2.00;;;;;;;13.89;90.04;68308.53;4977532;28;20070;-77
2022/11/09 00:22:20;;;;;;;3.97;2.17;;;;;;;13.84;90.39;68306.09;4977807;28;20104;-77
2022/11/09 00:24:45;;;;;;;4.13;1.95;;;;;;;13.83;90.49;68304.38;4985892;28;20057;-77
2022/11/09 00:27:10;;;;;;;3.83;1.90;;;;;;;13.86;90.39;68305.13;5001026;28;20096;-77
2022/11/09 00:29:35;;;;;;;5.82;2.80;;;;;;;;;;4985393;28;20042;-77
2022/11/09 00:32:01;;;;;;;4.93;2.20;;;;;;;13.81;90.46;68302.09;4987623;28;20516;-77
2022/11/09 00:34:26;;;;;;;4.80;2.25;;;;;;;13.76;90.95;68297.56;4987135;28;20273;-77
2022/11/09 00:36:51;;;;;;;5.30;2.15;;;;;;;;;;4985380;28;20039;-77
2022/11/09 00:39:17;;;;;;;5.20;1.83;;;;;;;;;;4987304;28;20342;-77
2022/11/09 00:41:42;;;;;;;3.88;2.17;;;;;;;13.66;91.68;68286.16;4986298;28;20293;-77
2022/11/09 00:44:07;;;;;;;5.60;2.20;;;;;;;13.60;92.05;68278.78;4988578;28;20048;-77
2022/11/09 00:46:33;;;;;;;5.43;2.20;;;;;;;13.62;92.07;68281.63;4987852;28;20528;-77
2022/11/09 00:48:58;;;;;;;6.18;2.30;;;;;;;13.56;92.43;68274.25;5003512;28;20038;-77
2022/11/09 00:51:24;;;;;;;6.68;2.30;;;;;;;;;;4986980;28;20122;-77
2022/11/09 00:53:53;;;;;;;8.52;2.53;;;;;;;13.55;92.78;68273.66;4970748;28;20457;-77
2022/11/09 00:56:18;;;;;;;4.78;1.98;;;;;;;13.53;93.17;68271.97;4976111;28;20124;-77
2022/11/09 00:58:44;;;;;;;5.65;2.10;;;;;;;13.56;93.16;68280.16;4982000;28;20049;-77
2022/11/09 01:01:14;;;;;;;5.47;2.58;;;;;;;;;;4986707;28;20112;-77
2022/11/09 01:03:40;;;;;;;3.58;2.25;;;;;;;13.58;92.95;68277.09;4982138;28;20263;-77
2022/11/09 01:06:05;;;;;;;7.30;2.35;;;;;;;13.60;92.81;68284.69;4987884;28;20050;-76
2022/11/09 01:08:31;;;;;;;4.57;2.05;;;;;;;;;;4988758;28;20386;-77
2022/11/09 01:10:56;;;;;;;4.93;2.53;;;;;;;;;;4981569;28;20050;-77
2022/11/09 01:13:22;;;;;;;6.22;2.10;;;;;;;;;;4979283;28;20047;-77
2022/11/09 01:15:50;;;;;;;6.10;2.10;;;;;;;13.62;92.79;68286.41;4999299;28;20042;-76
2022/11/09 01:18:15;;;;;;;4.72;2.13;;;;;;;;;;4987193;28;20053;-77
2022/11/09 01:20:41;;;;;;;6.05;2.13;;;;;;;;;;4979033;28;20050;-77
2022/11/09 01:23:07;;;;;;;4.68;2.20;;;;;;;;;;4994779;28;20042;-77
2022/11/09 01:25:33;;;;;;;6.32;2.13;;;;;;;13.72;92.36;68293.00;5000497;28;20061;-77
2022/11/09 01:27:59;;;;;;;5.65;2.38;;;;;;;13.73;92.52;68298.94;4987354;28;20058;-77
2022/11/09 01:30:24;;;;;;;5.60;2.00;;;;;;;;;;4981428;28;20129;-77
2022/11/09 01:32:49;;;;;;;5.53;2.30;;;;;;;;;;4985411;28;20250;-77
2022/11/09 01:35:15;;;;;;;4.80;2.63;;;;;;;13.75;92.56;68293.16;4984684;28;20417;-77
2022/11/09 01:37:40;;;;;;;4.03;2.25;;;;;;;13.76;92.61;68294.88;4984774;28;20645;-77
2022/11/09 01:40:05;;;;;;;6.47;1.98;;;;;;;;;;4986743;28;20396;-76
2022/11/09 01:42:35;;;;;;;3.13;1.88;;;;;;;13.80;92.62;68300.97;4988229;28;20510;-77
2022/11/09 01:45:19;;;;;;;6.40;2.20;;;;;;;13.77;92.84;68298.69;4958917;28;20043;-77
2022/11/09 01:47:49;;;;;;;4.20;2.67;;;;;;;13.80;92.63;68306.31;4968801;28;20410;-77
2022/11/09 01:50:19;;;;;;;3.97;1.95;;;;;;;13.79;92.51;68300.41;4980536;28;20402;-77
2022/11/09 01:52:48;;;;;;;4.47;1.80;;;;;;;13.79;92.63;68300.41;4979824;28;20050;-76
2022/11/09 01:55:19;;;;;;;4.35;1.88;;;;;;;13.81;92.51;68302.09;4988345;28;20536;-76
2022/11/09 01:57:52;;;;;;;6.78;2.40;;;;;;;13.82;92.53;68308.59;4989702;28;20039;-76
2022/11/09 02:00:18;;;;;;;5.10;2.08;;;;;;;13.81;92.35;68302.69;4987614;28;20519;-77
2022/11/09 02:02:47;;;;;;;6.53;2.63;;;;;;;;;;4980106;28;20049;-76
2022/11/09 02:05:18;;;;;;;4.78;1.92;;;;;;;13.76;92.70;68297.56;4987505;28;20038;-76
2022/11/09 02:07:44;;;;;;;4.53;2.42;;;;;;;13.74;92.81;68294.69;4989060;28;20522;-76
2022/11/09 02:10:12;;;;;;;3.55;1.88;;;;;;;;;;4979889;28;20046;-76
2022/11/09 02:12:39;;;;;;;4.05;1.98;;;;;;;13.72;92.83;68289.75;4986000;28;20100;-76
2022/11/09 02:15:07;;;;;;;6.07;2.10;;;;;;;13.70;93.21;68295.50;4980493;28;20402;-76
2022/11/09 02:17:33;;;;;;;4.60;2.43;;;;;;;13.69;92.87;68294.34;4990645;28;20100;-76
2022/11/09 02:19:59;;;;;;;3.65;1.98;;;;;;;;;;4989361;28;20673;-75
2022/11/09 02:22:25;;;;;;;5.80;2.20;;;;;;;;;;4988045;28;20038;-76
2022/11/09 02:24:50;;;;;;;5.97;2.20;;;;;;;;;;4987281;28;20085;-76
2022/11/09 02:27:15;;;;;;;6.25;2.10;;;;;;;13.67;93.48;68286.75;4984619;28;20490;-76
2022/11/09 02:29:43;;;;;;;7.57;2.00;;;;;;;13.67;93.54;68287.31;4987289;28;20125;-76
2022/11/09 02:32:16;;;;;;;5.72;2.42;;;;;;;13.69;93.35;68289.00;4986489;28;20351;-76
2022/11/09 02:34:41;;;;;;;3.78;1.60;;;;;;;13.69;93.39;68289.56;4988271;28;20042;-76
2022/11/09 02:37:06;;;;;;;4.65;2.00;;;;;;;13.69;93.08;68294.94;5001611;28;20112;-76
2022/11/09 02:39:33;;;;;;;3.97;2.00;;;;;;;13.69;93.07;68289.56;4989832;28;20046;-76
2022/11/09 02:42:01;;;;;;;4.07;1.75;;;;;;;13.69;92.98;68294.94;4983873;28;20069;-75
2022/11/09 02:44:28;;;;;;;5.32;2.00;;;;;;;;;;4993878;28;20129;-75
2022/11/09 02:46:53;;;;;;;4.35;1.73;;;;;;;13.66;92.75;68291.50;4982365;28;20050;-76
2022/11/09 02:49:19;;;;;;;3.80;1.83;;;;;;;;;;4987530;28;20074;-76
2022/11/09 02:51:44;;;;;;;6.93;2.15;;;;;;;13.65;92.77;68285.03;4988872;28;20046;-76
2022/11/09 02:54:09;;;;;;;8.35;2.08;;;;;;;13.63;92.66;68282.75;4987739;28;20428;-76
2022/11/09 02:56:34;;;;;;;3.30;1.40;;;;;;;;;;4987899;28;20042;-75
2022/11/09 02:59:02;;;;;;;6.37;1.90;;;;;;;;;;5004735;28;20042;-76
2022/11/09 03:01:27;;;;;;;3.55;1.40;;;;;;;13.61;92.23;68285.84;4992290;28;20728;-76
2022/11/09 03:03:52;;;;;;;4.40;1.60;;;;;;;13.60;92.16;68284.69;4986667;28;20046;-75
2022/11/09 03:06:18;;;;;;;4.97;1.90;;;;;;;13.57;92.40;68281.28;5011815;23;20072;-78
2022/11/09 03:08:43;;;;;;;5.68;1.92;;;;;;;13.56;92.34;68274.81;4991917;28;20051;-78
2022/11/09 03:11:08;;;;;;;3.50;1.63;;;;;;;;;;4992132;28;20057;-78
2022/11/09 03:13:34;;;;;;;4.50;1.80;;;;;;;13.53;92.40;68277.31;4991547;28;20123;-78
2022/11/09 03:16:06;;;;;;;5.97;2.17;;;;;;;;;;4992966;28;20359;-78
2022/11/09 03:18:31;;;;;;;4.43;1.70;;;;;;;13.45;92.78;68262.28;4985453;28;20154;-79
2022/11/09 03:21:00;;;;;;;6.18;1.60;;;;;;;;;;4979797;28;20139;-79
2022/11/09 03:23:26;;;;;;;;;;;;;;;;;;4976423;28;20046;-78
2022/11/09 03:25:51;;;;;;;9.02;1.60;;;;;;;13.34;93.28;68255.13;4972094;28;19929;-78
2022/11/09 03:28:17;;;;;;;3.83;1.60;;;;;;;13.35;93.26;68251.50;4973949;28;20043;-78
2022/11/09 03:30:42;;;;;;;6.63;1.90;;;;;;;13.37;92.91;68253.75;4989872;28;20034;-78
2022/11/09 03:33:08;;;;;;;5.13;1.98;;;;;;;13.37;92.94;68253.19;4976170;28;20046;-78
2022/11/09 03:35:35;;;;;;;4.10;1.33;;;;;;;;;;4974555;28;20320;-79
2022/11/09 03:38:00;;;;;;;4.65;1.58;;;;;;;;;;4971208;28;20046;-78
2022/11/09 03:40:25;;;;;;;4.50;1.70;;;;;;;;;;4973099;28;20047;-78
2022/11/09 03:42:50;;;;;;;6.90;1.40;;;;;;;13.34;92.48;68250.34;4969861;28;20800;-77
2022/11/09 03:45:16;;;;;;;5.65;1.60;;;;;;;;;;4966427;28;20270;-77
2022/11/09 03:47:48;;;;;;;5.63;2.22;;;;;;;13.31;92.33;68252.84;4974763;28;20101;-78
2022/11/09 03:50:15;;;;;;;3.65;1.83;;;;;;;13.29;92.42;68244.66;4976822;28;20042;-78
2022/11/09 03:52:45;;;;;;;7.85;2.20;;;;;;;13.30;92.42;68245.81;4970381;28;20053;-78
2022/11/09 03:55:12;;;;;;;5.50;1.70;;;;;;;13.29;92.29;68245.22;4972037;28;20446;-77
2022/11/09 03:57:37;;;;;;;6.05;2.33;;;;;;;;;;4969586;28;20395;-77
2022/11/09 04:00:04;;;;;;;5.50;1.65;;;;;;;13.27;92.25;68242.94;4970815;28;20053;-77
2022/11/09 04:02:30;;;;;;;7.35;1.55;;;;;;;;;;4972239;28;20042;-77
2022/11/09 04:04:55;;;;;;;5.47;1.20;;;;;;;13.27;92.19;68247.72;4969791;28;20049;-77
2022/11/09 04:07:20;;;;;;;4.10;1.60;;;;;;;;;;4972580;28;20075;-78
2022/11/09 04:09:46;;;;;;;4.53;1.40;;;;;;;13.28;91.88;68244.09;4971554;28;20050;-77
2022/11/09 04:12:11;;;;;;;7.30;1.88;;;;;;;13.28;91.74;68244.09;4970560;28;20294;-77
2022/11/09 04:14:36;;;;;;;8.85;1.65;;;;;;;13.27;91.53;68242.94;4971555;28;20042;-78
2022/11/09 04:17:01;;;;;;;5.82;1.67;;;;;;;;;;4969725;28;20564;-79
2022/11/09 04:19:27;;;;;;;5.70;2.15;;;;;;;;;;4973527;28;20465;-78
2022/11/09 04:21:52;;;;;;;4.07;1.97;;;;;;;13.30;91.63;68246.38;4973275;28;20038;-78
2022/11/09 04:24:17;;;;;;;4.45;1.90;;;;;;;;;;4973552;28;20577;-79
2022/11/09 04:26:43;;;;;;;8.70;2.30;;;;;;;13.28;92.25;68244.09;4972253;28;20058;-78
2022/11/09 04:29:09;;;;;;;6.40;2.30;;;;;;;13.28;92.02;68243.53;4971051;28;20271;-78
2022/11/09 04:31:34;;;;;;;7.75;2.10;;;;;;;13.27;92.23;68242.94;4988459;28;20506;-77
2022/11/09 04:34:00;;;;;;;9.63;2.33;;;;;;;13.27;92.37;68247.72;4975591;28;20049;-78
2022/11/09 04:36:25;;;;;;;6.25;1.95;;;;;;;13.26;92.46;68241.81;4993348;28;20505;-77
2022/11/09 04:38:50;;;;;;;4.05;1.52;;;;;;;;;;4985704;28;20043;-78
2022/11/09 04:41:16;;;;;;;8.23;2.22;;;;;;;13.24;92.76;68244.88;4980104;28;20070;-78
2022/11/09 04:43:41;;;;;;;4.68;1.77;;;;;;;13.24;93.10;68250.22;4977604;28;20360;-77
2022/11/09 04:46:07;;;;;;;7.00;2.13;;;;;;;13.23;93.35;68237.81;4979019;28;20050;-78
2022/11/09 04:48:33;;;;;;;8.45;2.50;;;;;;;;;;4980053;28;20410;-79
2022/11/09 04:51:04;;;;;;;7.38;2.58;;;;;;;13.19;94.46;68233.84;4983704;28;20049;-78
2022/11/09 04:53:29;;;;;;;8.90;2.22;;;;;;;;;;4979466;28;20068;-79
2022/11/09 04:55:55;;;;;;;7.45;2.00;;;;;;;13.16;94.81;68230.41;4972950;28;20038;-79
2022/11/09 04:58:20;;;;;;;7.28;1.90;;;;;;;13.16;94.80;68227.19;4971107;28;20053;-78
2022/11/09 05:00:45;;;;;;;9.32;1.95;;;;;;;;;;4964051;28;20053;-80
2022/11/09 05:03:11;;;;;;;6.27;2.10;;;;;;;13.14;94.84;68228.13;4963756;28;20086;-80
2022/11/09 05:05:38;;;;;;;8.60;2.15;;;;;;;13.15;94.95;68226.03;4966474;28;20278;-80
2022/11/09 05:08:05;;;;;;;7.57;2.45;;;;;;;13.14;94.97;68227.56;4972984;28;20043;-78
2022/11/09 05:10:31;;;;;;;5.47;1.75;;;;;;;13.13;94.93;68226.44;4973325;28;20090;-79
2022/11/09 05:13:01;;;;;;;9.10;2.38;;;;;;;13.10;94.86;68224.16;4976266;28;20043;-78
2022/11/09 05:15:27;;;;;;;4.57;1.73;;;;;;;13.12;94.55;68225.88;4969921;28;20445;-79
2022/11/09 05:17:52;;;;;;;7.30;2.30;;;;;;;13.12;94.59;68231.22;4971556;28;20031;-79
2022/11/09 05:20:18;;;;;;;8.63;2.28;;;;;;;13.11;94.62;68230.06;4973686;28;20042;-78
2022/11/09 05:25:27;;;;;;;9.25;1.90;;;;;;;13.13;94.64;68227.00;4974101;28;20061;-78
2022/11/09 05:27:52;;;;;;;7.05;1.85;;;;;;;13.10;94.85;68224.16;4977336;28;20630;-78
2022/11/09 05:30:18;;;;;;;7.75;2.25;;;;;;;13.09;94.82;68227.81;4976171;28;20039;-78
2022/11/09 05:32:43;;;;;;;6.47;2.03;;;;;;;;;;4975791;28;20100;-80
2022/11/09 05:35:09;;;;;;;5.45;1.50;;;;;;;;;;4974616;28;20046;-78
2022/11/09 05:37:34;;;;;;;7.63;1.67;;;;;;;13.05;94.57;68215.25;4974849;28;20046;-78
2022/11/09 05:39:59;;;;;;;6.35;1.98;;;;;;;13.00;94.88;68210.13;4976225;28;21065;-79
2022/11/09 05:42:25;;;;;;;10.43;2.20;;;;;;;12.99;94.98;68216.44;4974763;28;20043;-78
2022/11/09 05:44:50;;;;;;;8.35;1.88;;;;;;;;;;4976698;28;20638;-78
2022/11/09 05:47:15;;;;;;;7.38;2.40;;;;;;;12.92;95.41;68203.72;4976524;28;20053;-78
2022/11/09 05:49:41;;;;;;;4.85;1.70;;;;;;;;;;4976615;28;20122;-78
2022/11/09 05:52:06;;;;;;;7.75;1.85;;;;;;;12.88;95.78;68205.06;4991340;28;20386;-78
2022/11/09 05:54:31;;;;;;;7.30;1.92;;;;;;;12.89;95.75;68205.66;4976727;28;20161;-78
2022/11/09 05:56:57;;;;;;;9.27;2.22;;;;;;;12.88;96.07;68204.50;4974579;28;20066;-78
2022/11/09 05:59:22;;;;;;;5.40;1.90;;;;;;;12.88;96.08;68199.72;4975516;28;20225;-78
2022/11/09 06:01:47;;;;;;;7.13;1.60;;;;;;;;;;4973999;28;20039;-79
2022/11/09 06:04:12;;;;;;;8.07;2.42;;;;;;;12.81;96.44;68189.09;4974428;28;20052;-77
2022/11/09 06:06:38;;;;;;;8.82;1.70;;;;;;;12.82;96.56;68192.34;4974239;28;20141;-79
2022/11/09 06:09:03;;;;;;;5.95;2.10;;;;;;;12.79;96.83;68188.91;4977233;28;20442;-78
2022/11/09 06:11:28;;;;;;;7.22;1.80;;;;;;;;;;4975042;28;20058;-78
2022/11/09 06:13:54;;;;;;;8.40;2.10;;;;;;;;;;4971606;28;20047;-78
2022/11/09 06:16:19;;;;;;;7.55;2.33;;;;;;;12.75;96.74;68190.28;4974515;28;20389;-77
2022/11/09 06:18:45;;;;;;;6.47;2.13;;;;;;;12.72;96.81;68186.88;4975107;28;20035;-78
2022/11/09 06:21:10;;;;;;;8.02;2.80;;;;;;;;;;4981175;28;20077;-79
2022/11/09 06:23:35;;;;;;;5.93;1.30;;;;;;;12.67;97.18;68172.63;4985281;28;20039;-78
2022/11/09 06:26:08;;;;;;;9.43;1.67;;;;;;;12.64;97.26;68172.44;4974292;28;20494;-78
2022/11/09 06:28:34;;;;;;;8.88;2.28;;;;;;;12.61;97.62;68177.03;4976086;28;20133;-79
2022/11/09 06:31:00;;;;;;;6.47;1.90;;;;;;;;;;4975020;28;20506;-78
2022/11/09 06:33:25;;;;;;;9.23;2.03;;;;;;;;;;4974409;28;20082;-78
2022/11/09 06:35:51;;;;;;;6.38;1.45;;;;;;;12.53;97.74;68160.50;4974304;28;20093;-78
2022/11/09 06:38:16;;;;;;;6.47;2.00;;;;;;;12.49;98.09;68152.72;4975212;28;20078;-78
2022/11/09 06:40:42;;;;;;;8.68;2.05;;;;;;;12.45;98.30;68151.41;4973323;28;20481;-79
2022/11/09 06:43:08;;;;;;;10.07;1.95;;;;;;;;;;4973883;28;20053;-79
2022/11/09 06:45:33;;;;;;;7.35;2.47;;;;;;;;;;4974569;28;20118;-79
2022/11/09 06:48:01;;;;;;;9.18;3.08;;;;;;;12.34;99.36;68144.81;4974443;28;20145;-79
2022/11/09 06:50:28;;;;;;;11.00;2.33;;;;;;;12.35;99.51;68145.41;4974101;28;20051;-79
2022/11/09 06:52:57;;;;;;;8.77;2.60;;;;;;;;;;4973210;28;20053;-79
2022/11/09 06:55:23;;;;;;;9.13;2.22;;;;;;;12.32;99.69;68141.97;4978299;28;20137;-79
2022/11/09 06:57:48;;;;;;;8.30;2.30;;;;;;;;;;4972914;28;20062;-78
2022/11/09 07:00:14;;;;;;;12.23;3.05;;;;;;;12.29;99.79;68133.25;4973974;28;20042;-79
2022/11/09 07:02:41;;;;;;;9.23;2.42;;;;;;;12.26;100.00;68129.84;4973876;28;20053;-78
2022/11/09 07:05:06;;;;;;;9.20;3.22;;;;;;;;;;4973892;28;20402;-78
2022/11/09 07:07:32;;;;;;;10.35;1.95;;;;;;;12.23;100.00;68131.75;4974651;28;20054;-79
2022/11/09 07:09:57;;;;;;;6.05;2.20;;;;;;;;;;4973812;28;20098;-80
2022/11/09 07:12:22;;;;;;;10.02;2.80;;;;;;;12.16;100.00;68119.03;4973530;28;20051;-79
2022/11/09 07:14:48;;;;;;;7.82;2.40;;;;;;;;;;4973598;28;20043;-78
2022/11/09 07:17:13;;;;;;;8.45;2.33;;;;;;;12.12;100.00;68120.38;4974464;28;20046;-79
2022/11/09 07:19:38;;;;;;;7.93;2.22;;;;;;;12.10;100.00;68118.13;4974935;28;20051;-77
2022/11/09 07:22:04;;;;;;;7.63;2.00;;;;;;;12.09;100.00;68116.97;4975087;28;20059;-79
2022/11/09 07:24:29;;;;;;;8.00;2.50;;;;;;;12.07;100.00;68108.81;4973811;28;20054;-77
2022/11/09 07:26:54;;;;;;;6.90;2.05;;;;;;;;;;4973942;28;20577;-79
2022/11/09 07:29:19;;;;;;;6.85;2.00;;;;;;;12.05;100.00;68111.88;4972663;28;20042;-79
2022/11/09 07:31:45;;;;;;;8.23;2.33;;;;;;;12.03;100.00;68109.59;4989930;28;20066;-79
2022/11/09 07:34:10;;;;;;;11.05;2.58;;;;;;;;;;4974070;28;20102;-79
2022/11/09 07:36:35;;;;;;;7.50;2.78;;;;;;;12.08;100.00;68121.16;4981895;28;20064;-78
2022/11/09 07:39:01;;;;;;;10.10;2.40;;;;;;;;;;4974095;28;20034;-78
2022/11/09 07:41:26;;;;;;;10.55;2.50;;;;;;;12.12;100.00;68120.38;4974412;28;20038;-78
2022/11/09 07:43:51;;;;;;;8.90;2.13;;;;;;;;;;4971450;28;20490;-77
2022/11/09 07:46:17;;;;;;;7.70;2.90;;;;;;;12.12;100.00;68115.06;4973941;28;20462;-78
2022/11/09 07:48:42;;;;;;;8.25;2.28;;;;;;;;;;4972704;28;20065;-78
2022/11/09 07:51:08;;;;;;;7.30;2.50;;;;;;;12.18;100.00;68126.63;4972243;28;20375;-78
2022/11/09 07:53:33;;;;;;;10.55;2.50;;;;;;;12.18;100.00;68121.88;4972176;28;20366;-78
2022/11/09 07:56:00;;;;;;;10.60;2.28;;;;;;;;;;4971864;28;20046;-78
2022/11/09 07:58:26;;;;;;;7.28;2.10;;;;;;;12.23;100.00;68127.00;4976111;28;20051;-78
2022/11/09 08:00:51;;;;;;;8.52;2.38;;;;;;;;;;4973120;28;20049;-78
2022/11/09 08:03:20;;;;;;;10.02;2.15;;;;;;;;;;4973626;28;20042;-77
2022/11/09 08:05:47;;;;;;;10.02;2.17;;;;;;;12.35;99.93;68145.41;4976159;28;20050;-77
2022/11/09 08:08:12;;;;;;;11.93;2.40;;;;;;;;;;4975161;28;20042;-77
2022/11/09 08:10:38;;;;;;;8.95;2.00;;;;;;;12.42;99.46;68153.91;4974638;28;20061;-78
2022/11/09 08:13:07;;;;;;;8.82;2.30;;;;;;;12.45;99.03;68151.41;4973954;28;20508;-79
2022/11/09 08:15:35;;;;;;;8.90;2.55;;;;;;;12.45;98.90;68150.84;4972698;28;20031;-78
2022/11/09 08:18:04;;;;;;;10.27;2.00;;;;;;;12.45;98.93;68156.75;4972479;28;20469;-78
2022/11/09 08:20:29;;;;;;;;;;;;;;;12.46;99.14;68151.97;4974669;28;20122;-77
2022/11/09 08:22:55;;;;;;;10.85;2.45;;;;;;;12.42;99.38;68153.91;4978721;28;19961;-77
2022/11/09 08:25:21;;;;;;;6.93;2.10;;;;;;;12.49;99.43;68155.41;4974124;28;20556;-77
2022/11/09 08:27:46;;;;;;;9.65;2.28;;;;;;;;;;4971134;28;20058;-78
2022/11/09 08:30:14;;;;;;;4.73;1.40;;;;;;;12.54;98.55;68166.97;4972970;28;20030;-78
2022/11/09 08:32:44;;;;;;;8.40;1.90;;;;;;;12.56;98.18;68163.91;4973876;28;20302;-77
2022/11/09 08:35:15;;;;;;;6.88;2.33;;;;;;;12.57;98.13;68164.47;4971020;28;20035;-78
2022/11/09 08:37:41;;;;;;;6.93;1.85;;;;;;;12.56;98.28;68163.34;4980850;28;20042;-78
2022/11/09 08:40:07;;;;;;;8.65;2.30;;;;;;;12.53;98.09;68160.50;4976176;28;20441;-78
2022/11/09 08:42:32;;;;;;;12.05;2.58;;;;;;;12.54;97.99;68161.06;4975337;28;20047;-78
2022/11/09 08:44:57;;;;;;;7.20;3.08;;;;;;;12.54;98.01;68158.41;4977091;28;20109;-78
2022/11/09 08:47:23;;;;;;;7.85;2.33;;;;;;;12.54;98.04;68161.63;4972554;28;20126;-77
2022/11/09 08:49:48;;;;;;;9.25;1.95;;;;;;;12.56;97.69;68161.25;4971658;28;20546;-78
2022/11/09 08:52:16;;;;;;;7.43;1.90;;;;;;;12.61;97.88;68166.38;4971764;28;20035;-78
2022/11/09 08:54:41;;;;;;;8.60;2.33;;;;;;;12.65;97.71;68171.47;4978614;28;20182;-78
2022/11/09 08:57:07;;;;;;;9.13;2.45;;;;;;;12.69;96.89;68178.13;4972278;28;20512;-77
2022/11/09 08:59:32;;;;;;;10.63;3.13;;;;;;;;;;4971116;28;20070;-77
2022/11/09 09:01:57;;;;;;;8.70;2.17;;;;;;;12.79;97.14;68189.50;4973310;28;20068;-78
2022/11/09 09:04:23;;;;;;;9.25;2.08;;;;;;;12.80;96.80;68190.63;4971931;28;20310;-77
2022/11/09 09:07:02;;;;;;;6.10;1.92;;;;;;;;;;5083869;23;20112;-90
2022/11/09 09:09:28;;;;;;;7.57;2.47;;;;;;;12.83;97.00;68194.03;4972772;28;20058;-90
2022/11/09 09:12:00;;;;;;;6.95;2.47;;;;;;;12.82;96.65;68192.91;4978820;28;20054;-90
2022/11/09 09:14:28;;;;;;;7.90;2.20;;;;;;;;;;4968092;28;20066;-89
2022/11/09 09:16:56;;;;;;;7.33;2.27;;;;;;;;;;4951900;28;20061;-89
2022/11/09 09:19:21;;;;;;;7.85;2.42;;;;;;;;;;4961507;28;20116;-91
2022/11/09 09:21:50;;;;;;;6.50;1.90;;;;;;;12.93;95.74;68212.28;4976329;28;20046;-90
2022/11/09 09:24:15;;;;;;;10.90;2.73;;;;;;;;;;4904890;29;20046;-89
2022/11/09 09:26:44;;;;;;;6.82;2.05;;;;;;;13.02;95.51;68215.06;4939167;28;20368;-89
2022/11/09 09:29:10;;;;;;;6.53;1.80;;;;;;;;;;4926712;28;20047;-89
2022/11/09 09:31:39;;;;;;;7.93;1.88;;;;;;;13.12;94.40;68225.28;4921074;28;20559;-89
2022/11/09 09:34:13;;;;;;;9.00;2.00;;;;;;;;;;4893477;28;20184;-89
2022/11/09 09:36:38;;;;;;;5.03;1.90;;;;;;;13.19;93.88;68238.63;4924026;28;20106;-90
2022/11/09 09:39:12;;;;;;;8.10;1.63;;;;;;;13.16;92.91;68230.41;4893703;29;20439;-89
2022/11/09 09:41:59;;;;;;;11.38;2.60;;;;;;;13.19;93.35;68233.25;4899239;29;20131;-89
2022/11/09 09:44:35;;;;;;;5.53;1.65;;;;;;;;;;4865425;29;20103;-89
2022/11/09 09:47:20;;;;;;;11.30;2.63;;;;;;;13.26;93.14;68241.25;4876947;29;20051;-89
2022/11/09 09:50:06;;;;;;;8.68;2.15;;;;;;;13.36;92.59;68252.06;4906496;29;20044;-89
2022/11/09 09:52:46;;;;;;;7.75;2.00;;;;;;;13.37;91.83;68247.84;4897109;29;20593;-89
2022/11/09 09:55:40;;;;;;;6.70;1.52;;;;;;;13.43;91.92;68260.00;4907164;28;20047;-89
2022/11/09 09:58:13;;;;;;;4.80;1.45;;;;;;;;;;4895267;28;20039;-89
2022/11/09 10:00:41;;;;;;;8.15;2.00;;;;;;;13.57;91.23;68275.38;4876433;29;20155;-90
2022/11/09 10:03:16;;;;;;;8.83;2.17;;;;;;;13.54;90.61;68272.53;4896945;29;20044;-89
2022/11/09 10:06:08;;;;;;;7.60;1.95;;;;;;;13.50;90.78;68267.97;4894395;29;20147;-89
2022/11/09 10:08:40;;;;;;;7.90;1.67;;;;;;;;;;4888571;29;20044;-89
2022/11/09 10:11:17;;;;;;;6.38;1.45;;;;;;;13.43;90.72;68265.34;4931124;29;20043;-89
2022/11/09 10:13:54;;;;;;;9.40;1.85;;;;;;;;;;4947284;28;20043;-90
2022/11/09 10:16:44;;;;;;;5.97;1.80;;;;;;;13.40;90.74;68256.59;4935975;29;20131;-89
2022/11/09 10:19:27;;;;;;;7.40;1.65;;;;;;;13.50;91.06;68265.31;4924353;28;20052;-89
2022/11/09 10:22:22;;;;;;;8.07;1.65;;;;;;;13.55;90.34;68273.66;4958006;28;20047;-90
2022/11/09 10:24:49;;;;;;;6.45;2.08;;;;;;;;;;4943713;29;20047;-90
2022/11/09 10:27:32;;;;;;;6.70;1.90;;;;;;;;;;4925190;29;20048;-89
2022/11/09 10:30:12;;;;;;;7.57;1.95;;;;;;;13.76;88.26;68294.31;4925220;29;20156;-90
2022/11/09 10:32:37;;;;;;;;;;;;;;;13.79;88.38;68305.19;4919387;29;20080;-90
2022/11/09 10:38:41;;;;;;;7.88;1.90;;;;;;;13.75;87.87;68301.78;4934837;28;20038;-90
2022/11/09 10:41:30;;;;;;;7.25;2.40;;;;;;;13.76;87.66;68294.88;4950972;28;20053;-89
2022/11/09 10:44:01;;;;;;;11.95;2.80;;;;;;;13.81;87.48;68308.03;4977093;28;20094;-90
2022/11/09 10:46:27;;;;;;;8.05;1.83;;;;;;;;;;4978712;28;20105;-90
2022/11/09 10:49:15;;;;;;;9.63;1.70;;;;;;;13.77;85.92;68298.69;4965839;28;20039;-90
2022/11/09 10:51:46;;;;;;;6.95;1.80;;;;;;;13.91;86.42;68311.38;4966273;28;20067;-89
2022/11/09 10:54:27;;;;;;;7.57;1.63;;;;;;;13.98;85.19;68321.44;4936601;28;20054;-90
2022/11/09 10:57:36;;;;;;;7.95;2.22;;;;;;;14.07;85.44;68337.03;4921724;28;20066;-90
2022/11/09 11:00:04;;;;;;;4.30;1.23;;;;;;;;;;4845786;29;20045;-90
2022/11/09 11:02:34;;;;;;;5.93;1.90;;;;;;;14.25;84.67;68351.03;4875368;29;20129;-90
2022/11/09 11:05:26;;;;;;;7.05;2.08;;;;;;;14.29;83.46;68360.94;4879511;29;20104;-89
2022/11/09 11:07:58;;;;;;;6.47;1.55;;;;;;;14.37;83.30;68362.00;4843387;29;20061;-90
2022/11/09 11:10:26;;;;;;;7.95;1.48;;;;;;;14.42;83.80;68376.31;4816400;29;20125;-89
2022/11/09 11:12:54;;;;;;;5.70;1.45;;;;;;;;;;4806175;29;20045;-90
2022/11/09 11:15:31;;;;;;;9.52;1.88;;;;;;;14.42;82.55;68370.38;4830057;29;20037;-90
2022/11/09 11:18:09;;;;;;;5.72;1.50;;;;;;;;;;4826766;29;20060;-91
2022/11/09 11:20:39;;;;;;;6.93;1.15;;;;;;;;;;4826604;29;20050;-92
2022/11/09 11:23:36;;;;;;;6.22;1.40;;;;;;;14.30;82.14;68356.72;4820503;29;20046;-92
2022/11/09 11:26:50;;;;;;;11.25;1.63;;;;;;;14.25;82.91;68348.34;4777812;29;26101;-90
2022/11/09 11:29:43;;;;;;;7.13;2.05;;;;;;;14.39;83.89;68372.34;4864004;29;20053;-91
2022/11/09 11:32:18;;;;;;;7.35;1.52;;;;;;;14.42;82.46;68370.38;4755197;29;20134;-90
2022/11/09 11:34:44;;;;;;;10.35;1.85;;;;;;;;;;4756502;29;20051;-90
2022/11/09 11:37:28;;;;;;;6.30;1.70;;;;;;;;;;4781044;29;20046;-90
2022/11/09 11:40:05;;;;;;;7.22;1.70;;;;;;;14.45;81.67;68379.16;4809349;29;20106;-90
2022/11/09 11:42:42;;;;;;;5.25;1.50;;;;;;;14.44;80.94;68378.00;4807905;29;20050;-90
2022/11/09 11:45:20;;;;;;;12.57;1.73;;;;;;;14.38;80.94;68365.81;4812738;29;20038;-90
2022/11/09 11:48:00;;;;;;;6.80;1.77;;;;;;;14.44;81.16;68373.22;4825249;29;20054;-90
2022/11/09 11:50:41;;;;;;;6.93;1.63;;;;;;;14.36;81.29;68363.56;4806388;29;20051;-91
2022/11/09 11:53:23;;;;;;;8.15;1.55;;;;;;;14.31;81.30;68363.78;4786008;29;20049;-90
2022/11/09 11:56:26;;;;;;;8.38;1.83;;;;;;;14.32;81.37;68359.56;4807473;29;20086;-90
2022/11/09 11:59:20;;;;;;;7.18;2.33;;;;;;;14.29;80.54;68355.59;4844945;29;20049;-90
2022/11/09 12:02:26;;;;;;;9.27;2.78;;;;;;;14.29;81.22;68355.59;4841991;29;20051;-90
2022/11/09 12:05:38;;;;;;;9.65;2.30;;;;;;;14.29;80.58;68355.59;4899373;29;20053;-90
2022/11/09 12:08:15;;;;;;;5.57;1.73;;;;;;;;;;4879065;29;20574;-90
2022/11/09 12:11:34;;;;;;;10.05;2.55;;;;;;;;;;4883009;29;20044;-90
2022/11/09 12:13:50;;;;;;;5.75;1.50;;;;;;;14.17;80.10;68343.06;4904175;29;20040;-90
2022/11/09 12:16:39;;;;;;;6.38;2.03;;;;;;;;;;4866365;29;20055;-90
2022/11/09 12:19:10;;;;;;;9.35;2.00;;;;;;;14.16;80.19;68341.94;4903204;29;20048;-89
2022/11/09 12:22:00;;;;;;;8.13;2.33;;;;;;;14.14;80.32;68345.00;4920265;29;20063;-89
2022/11/09 12:24:39;;;;;;;10.15;2.00;;;;;;;14.13;80.71;68338.53;4897204;29;20043;-90
2022/11/09 12:27:43;;;;;;;9.02;2.03;;;;;;;14.13;80.55;68338.53;4884130;29;20048;-89
2022/11/09 12:30:33;;;;;;;5.38;1.45;;;;;;;;;;4887950;29;20072;-90
2022/11/09 12:33:46;;;;;;;5.63;1.67;;;;;;;14.04;80.24;68325.00;4845517;29;20052;-89
2022/11/09 12:36:14;;;;;;;6.05;1.63;;;;;;;;;;4886740;29;20092;-90
2022/11/09 12:39:07;;;;;;;6.18;1.67;;;;;;;14.03;80.72;68327.13;4874709;29;20072;-91
2022/11/09 12:41:38;;;;;;;7.15;1.92;;;;;;;;;;4906330;28;20375;-90
2022/11/09 12:44:09;;;;;;;5.18;0.95;;;;;;;;;;4882561;29;20750;-90